sensor_id;sensor_type;location;lat;lon;timestamp;pressure;altitude;pressure_sealevel;temperature;humidity
4398;BME280;2213;49.720;7.296;2023-04-06T00:00:59;98363.41;;;2.89;100.00
4398;BME280;2213;49.720;7.296;2023-04-06T00:03:29;98359.88;;;2.90;100.00
4398;BME280;2213;49.720;7.296;2023-04-06T00:05:59;98362.72;;;2.87;100.00
4398;BME280;2213;49.720;7.296;2023-04-06T00:08:30;98367.59;;;2.80;100.00
4398;BME280;2213;49.720;7.296;2023-04-06T00:11:00;98361.31;;;2.73;100.00
4398;BME280;2213;49.720;7.296;2023-04-06T00:13:31;98362.81;;;2.76;100.00
4398;BME280;2213;49.720;7.296;2023-04-06T00:16:00;98358.47;;;2.76;100.00
4398;BME280;2213;49.720;7.296;2023-04-06T00:18:30;98351.66;;;2.75;100.00
4398;BME280;2213;49.720;7.296;2023-04-06T00:20:58;98354.13;;;2.77;100.00
4398;BME280;2213;49.720;7.296;2023-04-06T00:23:31;98345.56;;;2.76;100.00
4398;BME280;2213;49.720;7.296;2023-04-06T00:26:01;98345.00;;;2.73;100.00
4398;BME280;2213;49.720;7.296;2023-04-06T00:28:30;98340.66;;;2.73;100.00
4398;BME280;2213;49.720;7.296;2023-04-06T00:31:01;98344.72;;;2.66;100.00
4398;BME280;2213;49.720;7.296;2023-04-06T00:33:32;98347.25;;;2.57;100.00
4398;BME280;2213;49.720;7.296;2023-04-06T00:36:01;98343.44;;;2.61;100.00
4398;BME280;2213;49.720;7.296;2023-04-06T00:38:33;98339.81;;;2.63;100.00
4398;BME280;2213;49.720;7.296;2023-04-06T00:41:05;98341.03;;;2.69;100.00
4398;BME280;2213;49.720;7.296;2023-04-06T00:43:34;98333.69;;;2.64;100.00
4398;BME280;2213;49.720;7.296;2023-04-06T00:46:05;98332.56;;;2.57;100.00
4398;BME280;2213;49.720;7.296;2023-04-06T00:48:36;98338.69;;;2.56;100.00
4398;BME280;2213;49.720;7.296;2023-04-06T00:51:07;98334.47;;;2.55;100.00
4398;BME280;2213;49.720;7.296;2023-04-06T00:53:38;98327.63;;;2.44;100.00
4398;BME280;2213;49.720;7.296;2023-04-06T00:56:09;98324.88;;;2.36;100.00
4398;BME280;2213;49.720;7.296;2023-04-06T00:58:39;98323.00;;;2.38;100.00
4398;BME280;2213;49.720;7.296;2023-04-06T01:01:10;98321.91;;;2.41;100.00
4398;BME280;2213;49.720;7.296;2023-04-06T01:03:40;98324.66;;;2.39;100.00
4398;BME280;2213;49.720;7.296;2023-04-06T01:06:14;98325.94;;;2.34;100.00
4398;BME280;2213;49.720;7.296;2023-04-06T01:08:45;98320.50;;;2.27;100.00
4398;BME280;2213;49.720;7.296;2023-04-06T01:11:16;98324.28;;;2.23;100.00
4398;BME280;2213;49.720;7.296;2023-04-06T01:13:47;98319.50;;;2.19;100.00
4398;BME280;2213;49.720;7.296;2023-04-06T01:16:17;98319.06;;;2.14;100.00
4398;BME280;2213;49.720;7.296;2023-04-06T01:18:47;98316.13;;;2.18;100.00
4398;BME280;2213;49.720;7.296;2023-04-06T01:21:17;98310.81;;;2.20;100.00
4398;BME280;2213;49.720;7.296;2023-04-06T01:23:48;98310.13;;;2.18;100.00
4398;BME280;2213;49.720;7.296;2023-04-06T01:26:18;98304.16;;;2.17;100.00
4398;BME280;2213;49.720;7.296;2023-04-06T01:28:47;98305.91;;;2.17;100.00
4398;BME280;2213;49.720;7.296;2023-04-06T01:31:19;98301.19;;;2.22;100.00
4398;BME280;2213;49.720;7.296;2023-04-06T01:33:50;98302.69;;;2.24;100.00
4398;BME280;2213;49.720;7.296;2023-04-06T01:36:21;98295.22;;;2.21;100.00
4398;BME280;2213;49.720;7.296;2023-04-06T01:38:53;98290.81;;;2.12;100.00
4398;BME280;2213;49.720;7.296;2023-04-06T01:41:25;98291.53;;;2.14;100.00
4398;BME280;2213;49.720;7.296;2023-04-06T01:43:55;98297.63;;;2.13;100.00
4398;BME280;2213;49.720;7.296;2023-04-06T01:46:24;98294.09;;;2.14;100.00
4398;BME280;2213;49.720;7.296;2023-04-06T01:48:54;98285.91;;;2.09;100.00
4398;BME280;2213;49.720;7.296;2023-04-06T01:51:24;98287.81;;;2.07;100.00
4398;BME280;2213;49.720;7.296;2023-04-06T01:53:56;98283.03;;;2.02;100.00
4398;BME280;2213;49.720;7.296;2023-04-06T01:56:26;98288.72;;;1.96;100.00
4398;BME280;2213;49.720;7.296;2023-04-06T01:58:56;98282.69;;;1.86;100.00
4398;BME280;2213;49.720;7.296;2023-04-06T02:01:25;98279.03;;;1.89;100.00
4398;BME280;2213;49.720;7.296;2023-04-06T02:03:54;98293.16;;;1.94;100.00
4398;BME280;2213;49.720;7.296;2023-04-06T02:06:22;98282.78;;;1.85;100.00
4398;BME280;2213;49.720;7.296;2023-04-06T02:08:51;98280.94;;;1.87;100.00
4398;BME280;2213;49.720;7.296;2023-04-06T02:11:21;98276.03;;;1.84;100.00
4398;BME280;2213;49.720;7.296;2023-04-06T02:13:49;98275.19;;;1.83;100.00
4398;BME280;2213;49.720;7.296;2023-04-06T02:16:18;98279.53;;;1.83;100.00
4398;BME280;2213;49.720;7.296;2023-04-06T02:18:47;98286.34;;;1.84;100.00
4398;BME280;2213;49.720;7.296;2023-04-06T02:21:15;98285.25;;;1.86;100.00
4398;BME280;2213;49.720;7.296;2023-04-06T02:23:47;98275.19;;;1.83;100.00
4398;BME280;2213;49.720;7.296;2023-04-06T02:26:17;98275.56;;;1.79;100.00
4398;BME280;2213;49.720;7.296;2023-04-06T02:28:50;98278.16;;;1.79;100.00
4398;BME280;2213;49.720;7.296;2023-04-06T02:31:20;98276.50;;;1.78;100.00
4398;BME280;2213;49.720;7.296;2023-04-06T02:33:50;98278.91;;;1.70;100.00
4398;BME280;2213;49.720;7.296;2023-04-06T02:36:21;98277.53;;;1.66;100.00
4398;BME280;2213;49.720;7.296;2023-04-06T02:38:51;98269.91;;;1.64;100.00
4398;BME280;2213;49.720;7.296;2023-04-06T02:41:20;98271.00;;;1.62;100.00
4398;BME280;2213;49.720;7.296;2023-04-06T02:43:50;98279.41;;;1.64;100.00
4398;BME280;2213;49.720;7.296;2023-04-06T02:46:18;98267.47;;;1.63;100.00
4398;BME280;2213;49.720;7.296;2023-04-06T02:48:47;98267.72;;;1.60;100.00
4398;BME280;2213;49.720;7.296;2023-04-06T02:51:15;98269.34;;;1.61;100.00
4398;BME280;2213;49.720;7.296;2023-04-06T02:53:44;98267.84;;;1.58;100.00
4398;BME280;2213;49.720;7.296;2023-04-06T02:56:12;98266.81;;;1.49;100.00
4398;BME280;2213;49.720;7.296;2023-04-06T02:58:42;98267.06;;;1.46;100.00
4398;BME280;2213;49.720;7.296;2023-04-06T03:01:14;98271.41;;;1.46;100.00
4398;BME280;2213;49.720;7.296;2023-04-06T03:03:46;98269.22;;;1.41;100.00
4398;BME280;2213;49.720;7.296;2023-04-06T03:06:17;98267.59;;;1.40;100.00
4398;BME280;2213;49.720;7.296;2023-04-06T03:08:48;98259.16;;;1.38;100.00
4398;BME280;2213;49.720;7.296;2023-04-06T03:11:19;98258.09;;;1.41;100.00
4398;BME280;2213;49.720;7.296;2023-04-06T03:13:49;98256.44;;;1.40;100.00
4398;BME280;2213;49.720;7.296;2023-04-06T03:16:20;98252.63;;;1.34;100.00
4398;BME280;2213;49.720;7.296;2023-04-06T03:18:50;98261.03;;;1.36;100.00
4398;BME280;2213;49.720;7.296;2023-04-06T03:21:20;98264.56;;;1.35;100.00
4398;BME280;2213;49.720;7.296;2023-04-06T03:23:50;98262.78;;;1.36;100.00
4398;BME280;2213;49.720;7.296;2023-04-06T03:26:21;98271.59;;;1.33;100.00
4398;BME280;2213;49.720;7.296;2023-04-06T03:28:50;98264.78;;;1.32;100.00
4398;BME280;2213;49.720;7.296;2023-04-06T03:31:22;98269.00;;;1.33;100.00
4398;BME280;2213;49.720;7.296;2023-04-06T03:33:52;98268.91;;;1.35;100.00
4398;BME280;2213;49.720;7.296;2023-04-06T03:36:22;98264.69;;;1.34;100.00
4398;BME280;2213;49.720;7.296;2023-04-06T03:38:53;98268.59;;;1.28;100.00
4398;BME280;2213;49.720;7.296;2023-04-06T03:41:25;98269.31;;;1.19;100.00
4398;BME280;2213;49.720;7.296;2023-04-06T03:43:55;98273.63;;;1.19;100.00
4398;BME280;2213;49.720;7.296;2023-04-06T03:46:28;98269.06;;;1.22;100.00
4398;BME280;2213;49.720;7.296;2023-04-06T03:48:59;98277.03;;;1.19;100.00
4398;BME280;2213;49.720;7.296;2023-04-06T03:51:29;98272.13;;;1.16;100.00
4398;BME280;2213;49.720;7.296;2023-04-06T03:54:00;98274.69;;;1.16;100.00
4398;BME280;2213;49.720;7.296;2023-04-06T03:56:30;98278.53;;;1.22;100.00
4398;BME280;2213;49.720;7.296;2023-04-06T03:59:01;98273.28;;;1.23;100.00
4398;BME280;2213;49.720;7.296;2023-04-06T04:01:32;98276.78;;;1.22;100.00
4398;BME280;2213;49.720;7.296;2023-04-06T04:04:02;98282.91;;;1.21;100.00
4398;BME280;2213;49.720;7.296;2023-04-06T04:06:33;98282.44;;;1.16;100.00
4398;BME280;2213;49.720;7.296;2023-04-06T04:09:04;98285.13;;;1.15;100.00
4398;BME280;2213;49.720;7.296;2023-04-06T04:11:34;98278.03;;;1.07;100.00
4398;BME280;2213;49.720;7.296;2023-04-06T04:14:04;98284.34;;;1.03;100.00
4398;BME280;2213;49.720;7.296;2023-04-06T04:16:35;98290.31;;;1.04;100.00
4398;BME280;2213;49.720;7.296;2023-04-06T04:19:07;98287.16;;;1.00;100.00
4398;BME280;2213;49.720;7.296;2023-04-06T04:21:43;98288.34;;;0.96;100.00
4398;BME280;2213;49.720;7.296;2023-04-06T04:24:14;98291.84;;;0.95;100.00
4398;BME280;2213;49.720;7.296;2023-04-06T04:26:45;98290.09;;;0.95;100.00
4398;BME280;2213;49.720;7.296;2023-04-06T04:29:16;98300.28;;;0.97;100.00
4398;BME280;2213;49.720;7.296;2023-04-06T04:31:50;98296.75;;;0.98;100.00
4398;BME280;2213;49.720;7.296;2023-04-06T04:34:21;98294.66;;;0.92;100.00
4398;BME280;2213;49.720;7.296;2023-04-06T04:36:54;98293.84;;;0.91;100.00
4398;BME280;2213;49.720;7.296;2023-04-06T04:39:26;98297.50;;;0.89;100.00
4398;BME280;2213;49.720;7.296;2023-04-06T04:41:57;98298.91;;;0.82;100.00
4398;BME280;2213;49.720;7.296;2023-04-06T04:44:26;98298.22;;;0.80;100.00
4398;BME280;2213;49.720;7.296;2023-04-06T04:46:57;98299.50;;;0.74;100.00
4398;BME280;2213;49.720;7.296;2023-04-06T04:49:27;98294.34;;;0.74;100.00
4398;BME280;2213;49.720;7.296;2023-04-06T04:51:58;98297.06;;;0.73;100.00
4398;BME280;2213;49.720;7.296;2023-04-06T04:54:28;98301.50;;;0.71;100.00
4398;BME280;2213;49.720;7.296;2023-04-06T04:56:58;98294.69;;;0.70;100.00
4398;BME280;2213;49.720;7.296;2023-04-06T04:59:28;98304.53;;;0.65;100.00
4398;BME280;2213;49.720;7.296;2023-04-06T05:02:00;98305.72;;;0.61;100.00
4398;BME280;2213;49.720;7.296;2023-04-06T05:04:31;98307.34;;;0.62;100.00
4398;BME280;2213;49.720;7.296;2023-04-06T05:07:04;98301.50;;;0.60;100.00
4398;BME280;2213;49.720;7.296;2023-04-06T05:09:34;98307.59;;;0.59;100.00
4398;BME280;2213;49.720;7.296;2023-04-06T05:12:04;98318.09;;;0.56;100.00
4398;BME280;2213;49.720;7.296;2023-04-06T05:14:34;98312.25;;;0.54;100.00
4398;BME280;2213;49.720;7.296;2023-04-06T05:17:06;98309.09;;;0.50;100.00
4398;BME280;2213;49.720;7.296;2023-04-06T05:19:37;98314.00;;;0.53;100.00
4398;BME280;2213;49.720;7.296;2023-04-06T05:22:07;98310.38;;;0.56;100.00
4398;BME280;2213;49.720;7.296;2023-04-06T05:24:38;98312.25;;;0.54;100.00
4398;BME280;2213;49.720;7.296;2023-04-06T05:27:07;98312.41;;;0.52;100.00
4398;BME280;2213;49.720;7.296;2023-04-06T05:29:38;98308.19;;;0.51;100.00
4398;BME280;2213;49.720;7.296;2023-04-06T05:32:10;98307.94;;;0.54;100.00
4398;BME280;2213;49.720;7.296;2023-04-06T05:34:39;98312.25;;;0.54;100.00
4398;BME280;2213;49.720;7.296;2023-04-06T05:37:10;98299.31;;;0.55;100.00
4398;BME280;2213;49.720;7.296;2023-04-06T05:39:40;98310.38;;;0.56;100.00
4398;BME280;2213;49.720;7.296;2023-04-06T05:42:10;98312.84;;;0.57;100.00
4398;BME280;2213;49.720;7.296;2023-04-06T05:44:40;98317.88;;;0.59;100.00
4398;BME280;2213;49.720;7.296;2023-04-06T05:47:10;98309.69;;;0.65;100.00
4398;BME280;2213;49.720;7.296;2023-04-06T05:49:42;98312.13;;;0.66;100.00
4398;BME280;2213;49.720;7.296;2023-04-06T05:52:12;98306.88;;;0.68;100.00
4398;BME280;2213;49.720;7.296;2023-04-06T05:54:42;98308.16;;;0.73;100.00
4398;BME280;2213;49.720;7.296;2023-04-06T05:57:12;98309.44;;;0.79;100.00
4398;BME280;2213;49.720;7.296;2023-04-06T05:59:44;98312.59;;;0.82;100.00
4398;BME280;2213;49.720;7.296;2023-04-06T06:02:15;98322.66;;;0.85;100.00
4398;BME280;2213;49.720;7.296;2023-04-06T06:04:46;98318.56;;;0.83;100.00
4398;BME280;2213;49.720;7.296;2023-04-06T06:07:16;98316.69;;;0.85;100.00
4398;BME280;2213;49.720;7.296;2023-04-06T06:09:47;98312.94;;;0.89;100.00
4398;BME280;2213;49.720;7.296;2023-04-06T06:12:18;98304.97;;;0.92;100.00
4398;BME280;2213;49.720;7.296;2023-04-06T06:14:47;98306.22;;;0.97;100.00
4398;BME280;2213;49.720;7.296;2023-04-06T06:17:18;98307.53;;;1.03;100.00
4398;BME280;2213;49.720;7.296;2023-04-06T06:19:49;98306.59;;;1.04;100.00
4398;BME280;2213;49.720;7.296;2023-04-06T06:22:19;98310.78;;;1.05;100.00
4398;BME280;2213;49.720;7.296;2023-04-06T06:24:49;98313.81;;;1.10;100.00
4398;BME280;2213;49.720;7.296;2023-04-06T06:27:20;98309.25;;;1.14;100.00
4398;BME280;2213;49.720;7.296;2023-04-06T06:29:50;98308.84;;;1.18;100.00
4398;BME280;2213;49.720;7.296;2023-04-06T06:32:22;98311.09;;;1.23;100.00
4398;BME280;2213;49.720;7.296;2023-04-06T06:34:51;98315.41;;;1.22;100.00
4398;BME280;2213;49.720;7.296;2023-04-06T06:37:23;98303.25;;;1.24;100.00
4398;BME280;2213;49.720;7.296;2023-04-06T06:39:52;98305.44;;;1.29;100.00
4398;BME280;2213;49.720;7.296;2023-04-06T06:42:20;98306.00;;;1.32;100.00
4398;BME280;2213;49.720;7.296;2023-04-06T06:44:51;98312.56;;;1.36;100.00
4398;BME280;2213;49.720;7.296;2023-04-06T06:47:21;98305.28;;;1.41;100.00
4398;BME280;2213;49.720;7.296;2023-04-06T06:49:50;98303.16;;;1.46;100.00
4398;BME280;2213;49.720;7.296;2023-04-06T06:52:18;98304.53;;;1.50;100.00
4398;BME280;2213;49.720;7.296;2023-04-06T06:54:47;98297.50;;;1.52;100.00
4398;BME280;2213;49.720;7.296;2023-04-06T06:57:16;98293.72;;;1.57;100.00
4398;BME280;2213;49.720;7.296;2023-04-06T06:59:44;98299.34;;;1.62;100.00
4398;BME280;2213;49.720;7.296;2023-04-06T07:02:14;98292.84;;;1.67;100.00
4398;BME280;2213;49.720;7.296;2023-04-06T07:04:48;98296.81;;;1.71;100.00
4398;BME280;2213;49.720;7.296;2023-04-06T07:07:19;98291.16;;;1.77;100.00
4398;BME280;2213;49.720;7.296;2023-04-06T07:09:50;98288.22;;;1.82;100.00
4398;BME280;2213;49.720;7.296;2023-04-06T07:12:21;98284.56;;;1.84;100.00
4398;BME280;2213;49.720;7.296;2023-04-06T07:14:50;98290.16;;;1.89;100.00
4398;BME280;2213;49.720;7.296;2023-04-06T07:17:20;98292.09;;;1.97;100.00
4398;BME280;2213;49.720;7.296;2023-04-06T07:19:52;98294.16;;;2.03;100.00
4398;BME280;2213;49.720;7.296;2023-04-06T07:22:23;98288.50;;;2.09;100.00
4398;BME280;2213;49.720;7.296;2023-04-06T07:24:53;98293.84;;;2.17;100.00
4398;BME280;2213;49.720;7.296;2023-04-06T07:27:24;98300.13;;;2.24;100.00
4398;BME280;2213;49.720;7.296;2023-04-06T07:29:54;98287.53;;;2.31;100.00
4398;BME280;2213;49.720;7.296;2023-04-06T07:32:25;98289.47;;;2.38;100.00
4398;BME280;2213;49.720;7.296;2023-04-06T07:34:57;98285.41;;;2.45;100.00
4398;BME280;2213;49.720;7.296;2023-04-06T07:37:27;98285.56;;;2.53;100.00
4398;BME280;2213;49.720;7.296;2023-04-06T07:39:57;98287.50;;;2.61;100.00
4398;BME280;2213;49.720;7.296;2023-04-06T07:42:28;98279.09;;;2.69;100.00
4398;BME280;2213;49.720;7.296;2023-04-06T07:44:58;98258.59;;;2.77;100.00
4398;BME280;2213;49.720;7.296;2023-04-06T07:47:27;98263.91;;;2.85;100.00
4398;BME280;2213;49.720;7.296;2023-04-06T07:50:00;98262.31;;;2.93;100.00
4398;BME280;2213;49.720;7.296;2023-04-06T07:52:30;98276.16;;;3.02;100.00
4398;BME280;2213;49.720;7.296;2023-04-06T07:55:06;98270.22;;;3.11;100.00
4398;BME280;2213;49.720;7.296;2023-04-06T07:57:35;98265.19;;;3.19;100.00
4398;BME280;2213;49.720;7.296;2023-04-06T08:00:08;98267.78;;;3.29;100.00
4398;BME280;2213;49.720;7.296;2023-04-06T08:02:39;98264.34;;;3.38;100.00
4398;BME280;2213;49.720;7.296;2023-04-06T08:05:12;98259.34;;;3.46;100.00
4398;BME280;2213;49.720;7.296;2023-04-06T08:07:42;98264.50;;;3.55;100.00
4398;BME280;2213;49.720;7.296;2023-04-06T08:10:11;98264.34;;;3.67;100.00
4398;BME280;2213;49.720;7.296;2023-04-06T08:12:41;98263.50;;;3.76;100.00
4398;BME280;2213;49.720;7.296;2023-04-06T08:15:11;98261.88;;;3.84;100.00
4398;BME280;2213;49.720;7.296;2023-04-06T08:17:42;98260.88;;;3.95;100.00
4398;BME280;2213;49.720;7.296;2023-04-06T08:20:15;98258.41;;;4.03;100.00
4398;BME280;2213;49.720;7.296;2023-04-06T08:22:45;98255.94;;;4.11;100.00
4398;BME280;2213;49.720;7.296;2023-04-06T08:25:20;98259.31;;;4.21;100.00
4398;BME280;2213;49.720;7.296;2023-04-06T08:27:50;98258.47;;;4.30;100.00
4398;BME280;2213;49.720;7.296;2023-04-06T08:30:20;98254.06;;;4.40;100.00
4398;BME280;2213;49.720;7.296;2023-04-06T08:32:51;98254.66;;;4.52;100.00
4398;BME280;2213;49.720;7.296;2023-04-06T08:35:24;98255.59;;;4.61;100.00
4398;BME280;2213;49.720;7.296;2023-04-06T08:37:57;98240.94;;;4.69;100.00
4398;BME280;2213;49.720;7.296;2023-04-06T08:40:27;98246.09;;;4.79;100.00
4398;BME280;2213;49.720;7.296;2023-04-06T08:42:56;98246.69;;;4.90;100.00
4398;BME280;2213;49.720;7.296;2023-04-06T08:45:30;98250.50;;;5.14;100.00
4398;BME280;2213;49.720;7.296;2023-04-06T08:48:00;98246.78;;;5.34;100.00
4398;BME280;2213;49.720;7.296;2023-04-06T08:50:35;98259.25;;;5.74;100.00
4398;BME280;2213;49.720;7.296;2023-04-06T08:53:03;98244.69;;;5.81;100.00
4398;BME280;2213;49.720;7.296;2023-04-06T08:55:35;98240.56;;;5.88;100.00
4398;BME280;2213;49.720;7.296;2023-04-06T08:58:06;98245.19;;;6.02;100.00
4398;BME280;2213;49.720;7.296;2023-04-06T09:00:38;98236.03;;;6.16;98.86
4398;BME280;2213;49.720;7.296;2023-04-06T09:03:08;98240.63;;;6.30;97.60
4398;BME280;2213;49.720;7.296;2023-04-06T09:05:39;98239.59;;;6.48;95.06
4398;BME280;2213;49.720;7.296;2023-04-06T09:08:08;98234.91;;;6.60;93.08
4398;BME280;2213;49.720;7.296;2023-04-06T09:10:40;98240.97;;;6.69;92.44
4398;BME280;2213;49.720;7.296;2023-04-06T09:13:11;98233.69;;;6.80;89.98
4398;BME280;2213;49.720;7.296;2023-04-06T09:15:44;98231.94;;;7.05;85.93
4398;BME280;2213;49.720;7.296;2023-04-06T09:18:28;98237.00;;;7.15;85.84
4398;BME280;2213;49.720;7.296;2023-04-06T09:21:03;98230.84;;;7.24;85.48
4398;BME280;2213;49.720;7.296;2023-04-06T09:23:34;98234.09;;;7.42;82.82
4398;BME280;2213;49.720;7.296;2023-04-06T09:26:09;98231.81;;;7.55;80.18
4398;BME280;2213;49.720;7.296;2023-04-06T09:28:43;98230.69;;;7.66;78.81
4398;BME280;2213;49.720;7.296;2023-04-06T09:31:17;98232.47;;;7.73;77.57
4398;BME280;2213;49.720;7.296;2023-04-06T09:33:53;98229.19;;;7.79;76.14
4398;BME280;2213;49.720;7.296;2023-04-06T09:36:32;98225.13;;;7.85;76.25
4398;BME280;2213;49.720;7.296;2023-04-06T09:39:05;98233.06;;;7.99;74.06
4398;BME280;2213;49.720;7.296;2023-04-06T09:41:36;98235.47;;;8.09;74.16
4398;BME280;2213;49.720;7.296;2023-04-06T09:44:06;98228.63;;;8.16;73.67
4398;BME280;2213;49.720;7.296;2023-04-06T09:46:38;98238.06;;;8.25;67.78
4398;BME280;2213;49.720;7.296;2023-04-06T09:49:28;98240.66;;;8.33;66.89
4398;BME280;2213;49.720;7.296;2023-04-06T09:52:03;98228.75;;;8.39;65.72
4398;BME280;2213;49.720;7.296;2023-04-06T09:54:36;98228.72;;;8.47;65.67
4398;BME280;2213;49.720;7.296;2023-04-06T09:57:15;98224.28;;;8.55;66.92
4398;BME280;2213;49.720;7.296;2023-04-06T10:00:01;98226.41;;;8.60;67.57
4398;BME280;2213;49.720;7.296;2023-04-06T10:02:45;98216.38;;;8.72;67.03
4398;BME280;2213;49.720;7.296;2023-04-06T10:05:22;98224.53;;;8.77;68.32
4398;BME280;2213;49.720;7.296;2023-04-06T10:08:00;98225.16;;;8.79;65.70
4398;BME280;2213;49.720;7.296;2023-04-06T10:10:31;98230.31;;;8.87;67.26
4398;BME280;2213;49.720;7.296;2023-04-06T10:13:02;98220.84;;;8.94;68.76
4398;BME280;2213;49.720;7.296;2023-04-06T10:15:34;98225.53;;;8.98;68.09
4398;BME280;2213;49.720;7.296;2023-04-06T10:18:05;98223.22;;;9.03;67.30
4398;BME280;2213;49.720;7.296;2023-04-06T10:20:43;98219.91;;;9.09;66.05
4398;BME280;2213;49.720;7.296;2023-04-06T10:23:24;98223.91;;;9.20;64.36
4398;BME280;2213;49.720;7.296;2023-04-06T10:25:57;98215.94;;;9.22;62.45
4398;BME280;2213;49.720;7.296;2023-04-06T10:28:33;98216.38;;;9.25;62.70
4398;BME280;2213;49.720;7.296;2023-04-06T10:31:06;98219.28;;;9.30;62.16
4398;BME280;2213;49.720;7.296;2023-04-06T10:33:35;98216.16;;;9.35;62.90
4398;BME280;2213;49.720;7.296;2023-04-06T10:36:12;98212.03;;;9.40;62.47
4398;BME280;2213;49.720;7.296;2023-04-06T10:38:44;98215.91;;;9.44;61.99
4398;BME280;2213;49.720;7.296;2023-04-06T10:41:18;98217.13;;;9.56;60.96
4398;BME280;2213;49.720;7.296;2023-04-06T10:43:56;98216.75;;;9.59;59.98
4398;BME280;2213;49.720;7.296;2023-04-06T10:46:30;98223.25;;;9.64;60.24
4398;BME280;2213;49.720;7.296;2023-04-06T10:49:11;98221.00;;;9.60;57.54
4398;BME280;2213;49.720;7.296;2023-04-06T10:51:42;98218.66;;;9.66;57.50
4398;BME280;2213;49.720;7.296;2023-04-06T10:54:13;98224.25;;;9.63;56.68
4398;BME280;2213;49.720;7.296;2023-04-06T10:56:44;98220.75;;;9.70;57.40
4398;BME280;2213;49.720;7.296;2023-04-06T10:59:18;98221.84;;;9.76;57.03
4398;BME280;2213;49.720;7.296;2023-04-06T11:01:48;98216.97;;;9.73;55.91
4398;BME280;2213;49.720;7.296;2023-04-06T11:04:20;98218.91;;;9.79;56.16
4398;BME280;2213;49.720;7.296;2023-04-06T11:06:51;98216.28;;;9.79;55.01
4398;BME280;2213;49.720;7.296;2023-04-06T11:09:26;98211.94;;;9.86;55.71
4398;BME280;2213;49.720;7.296;2023-04-06T11:11:56;98211.50;;;9.97;56.15
4398;BME280;2213;49.720;7.296;2023-04-06T11:14:27;98218.00;;;10.01;55.69
4398;BME280;2213;49.720;7.296;2023-04-06T11:16:58;98210.44;;;10.06;55.88
4398;BME280;2213;49.720;7.296;2023-04-06T11:19:28;98205.22;;;10.06;55.29
4398;BME280;2213;49.720;7.296;2023-04-06T11:22:07;98209.41;;;10.15;55.83
4398;BME280;2213;49.720;7.296;2023-04-06T11:24:39;98203.81;;;10.18;56.23
4398;BME280;2213;49.720;7.296;2023-04-06T11:27:09;98206.06;;;10.21;55.69
4398;BME280;2213;49.720;7.296;2023-04-06T11:29:40;98201.47;;;10.23;55.28
4398;BME280;2213;49.720;7.296;2023-04-06T11:32:09;98197.31;;;10.29;54.96
4398;BME280;2213;49.720;7.296;2023-04-06T11:34:39;98190.91;;;10.31;54.62
4398;BME280;2213;49.720;7.296;2023-04-06T11:37:11;98186.31;;;10.33;55.36
4398;BME280;2213;49.720;7.296;2023-04-06T11:39:49;98185.34;;;10.34;55.03
4398;BME280;2213;49.720;7.296;2023-04-06T11:42:24;98194.03;;;10.41;55.79
4398;BME280;2213;49.720;7.296;2023-04-06T11:44:56;98176.69;;;10.34;54.20
4398;BME280;2213;49.720;7.296;2023-04-06T11:47:32;98175.13;;;10.39;55.08
4398;BME280;2213;49.720;7.296;2023-04-06T11:50:11;98170.97;;;10.45;55.09
4398;BME280;2213;49.720;7.296;2023-04-06T11:52:43;98174.47;;;10.52;55.12
4398;BME280;2213;49.720;7.296;2023-04-06T11:55:18;98173.75;;;10.58;54.89
4398;BME280;2213;49.720;7.296;2023-04-06T11:57:47;98174.91;;;10.55;54.34
4398;BME280;2213;49.720;7.296;2023-04-06T12:00:18;98168.59;;;10.65;55.30
4398;BME280;2213;49.720;7.296;2023-04-06T12:02:48;98167.69;;;10.72;55.55
4398;BME280;2213;49.720;7.296;2023-04-06T12:05:19;98171.53;;;10.76;55.41
4398;BME280;2213;49.720;7.296;2023-04-06T12:07:49;98160.91;;;10.78;55.12
4398;BME280;2213;49.720;7.296;2023-04-06T12:10:21;98158.72;;;10.81;55.09
4398;BME280;2213;49.720;7.296;2023-04-06T12:12:50;98163.41;;;10.86;55.34
4398;BME280;2213;49.720;7.296;2023-04-06T12:15:20;98164.72;;;10.96;55.93
4398;BME280;2213;49.720;7.296;2023-04-06T12:17:50;98160.53;;;11.02;56.57
4398;BME280;2213;49.720;7.296;2023-04-06T12:20:20;98143.09;;;11.09;55.50
4398;BME280;2213;49.720;7.296;2023-04-06T12:22:54;98152.81;;;11.15;55.40
4398;BME280;2213;49.720;7.296;2023-04-06T12:25:25;98155.84;;;11.19;55.70
4398;BME280;2213;49.720;7.296;2023-04-06T12:27:57;98145.00;;;11.22;55.17
4398;BME280;2213;49.720;7.296;2023-04-06T12:30:28;98155.91;;;11.25;55.89
4398;BME280;2213;49.720;7.296;2023-04-06T12:32:58;98156.28;;;11.22;54.85
4398;BME280;2213;49.720;7.296;2023-04-06T12:35:28;98154.31;;;11.24;55.56
4398;BME280;2213;49.720;7.296;2023-04-06T12:37:58;98153.56;;;11.30;55.66
4398;BME280;2213;49.720;7.296;2023-04-06T12:40:30;98160.03;;;11.34;56.26
4398;BME280;2213;49.720;7.296;2023-04-06T12:43:00;98157.22;;;11.36;55.91
4398;BME280;2213;49.720;7.296;2023-04-06T12:45:30;98157.22;;;11.36;55.81
4398;BME280;2213;49.720;7.296;2023-04-06T12:47:59;98150.97;;;11.37;56.23
4398;BME280;2213;49.720;7.296;2023-04-06T12:50:28;98155.66;;;11.41;55.94
4398;BME280;2213;49.720;7.296;2023-04-06T12:52:56;98149.41;;;11.42;56.22
4398;BME280;2213;49.720;7.296;2023-04-06T12:55:25;98159.69;;;11.44;56.03
4398;BME280;2213;49.720;7.296;2023-04-06T12:57:56;98149.84;;;11.46;56.48
4398;BME280;2213;49.720;7.296;2023-04-06T13:00:25;98148.47;;;11.50;56.98
4398;BME280;2213;49.720;7.296;2023-04-06T13:02:54;98142.66;;;11.54;56.33
4398;BME280;2213;49.720;7.296;2023-04-06T13:05:23;98137.59;;;11.53;55.66
4398;BME280;2213;49.720;7.296;2023-04-06T13:07:56;98145.41;;;11.46;55.27
4398;BME280;2213;49.720;7.296;2023-04-06T13:10:26;98145.03;;;11.49;55.70
4398;BME280;2213;49.720;7.296;2023-04-06T13:12:58;98145.66;;;11.51;55.87
4398;BME280;2213;49.720;7.296;2023-04-06T13:15:28;98143.13;;;11.37;54.84
4398;BME280;2213;49.720;7.296;2023-04-06T13:17:57;98141.94;;;11.39;56.14
4398;BME280;2213;49.720;7.296;2023-04-06T13:20:27;98143.19;;;11.43;56.83
4398;BME280;2213;49.720;7.296;2023-04-06T13:22:57;98147.84;;;11.48;56.86
4398;BME280;2213;49.720;7.296;2023-04-06T13:25:26;98141.75;;;11.41;56.55
4398;BME280;2213;49.720;7.296;2023-04-06T13:27:56;98149.03;;;11.45;57.28
4398;BME280;2213;49.720;7.296;2023-04-06T13:30:27;98147.16;;;11.39;57.45
4398;BME280;2213;49.720;7.296;2023-04-06T13:32:57;98154.03;;;11.40;58.04
4398;BME280;2213;49.720;7.296;2023-04-06T13:35:27;98146.31;;;11.32;58.95
4398;BME280;2213;49.720;7.296;2023-04-06T13:37:58;98141.94;;;11.39;60.07
4398;BME280;2213;49.720;7.296;2023-04-06T13:40:28;98153.22;;;11.40;60.64
4398;BME280;2213;49.720;7.296;2023-04-06T13:42:58;98153.78;;;11.35;60.88
4398;BME280;2213;49.720;7.296;2023-04-06T13:45:28;98150.94;;;11.30;61.17